createdAt,value
2023-04-08T00:00:10.017Z,1.30
2023-04-08T00:02:37.495Z,1.30
2023-04-08T00:05:05.356Z,1.33
2023-04-08T00:07:32.619Z,1.30
2023-04-08T00:09:59.846Z,1.23
2023-04-08T00:12:27.019Z,1.48
2023-04-08T00:14:54.206Z,1.35
2023-04-08T00:17:21.493Z,1.50
2023-04-08T00:19:48.677Z,1.38
2023-04-08T00:22:15.904Z,1.35
2023-04-08T00:24:43.100Z,1.27
2023-04-08T00:27:10.292Z,1.20
2023-04-08T00:29:37.529Z,1.08
2023-04-08T00:32:04.840Z,1.00
2023-04-08T00:34:32.020Z,1.33
2023-04-08T00:36:59.326Z,1.05
2023-04-08T00:39:26.577Z,1.17
2023-04-08T00:41:53.743Z,1.30
2023-04-08T00:44:21.407Z,1.00
2023-04-08T00:46:48.665Z,1.13
2023-04-08T00:49:16.456Z,0.80
2023-04-08T00:51:43.621Z,1.10
2023-04-08T00:54:10.824Z,1.02
2023-04-08T00:56:38.404Z,1.23
2023-04-08T00:59:06.066Z,1.17
2023-04-08T01:02:26.339Z,1.15
2023-04-08T01:05:06.212Z,1.20
2023-04-08T01:07:35.981Z,1.13
2023-04-08T01:10:24.864Z,0.98
2023-04-08T01:15:21.251Z,1.50
2023-04-08T01:17:50.258Z,1.00
2023-04-08T01:22:54.851Z,1.17
2023-04-08T01:25:32.307Z,1.20
2023-04-08T01:28:02.088Z,1.05
2023-04-08T01:30:30.690Z,1.00
2023-04-08T01:32:58.811Z,1.13
2023-04-08T01:35:26.332Z,1.00
2023-04-08T01:37:54.773Z,1.02
2023-04-08T01:40:21.993Z,1.23
2023-04-08T01:42:54.734Z,1.27
2023-04-08T01:45:22.926Z,1.05
2023-04-08T01:47:51.107Z,1.10
2023-04-08T01:50:18.721Z,1.23
2023-04-08T01:52:48.186Z,1.30
2023-04-08T01:55:15.615Z,1.40
2023-04-08T01:57:46.506Z,1.15
2023-04-08T02:00:14.763Z,1.15
2023-04-08T02:02:43.566Z,1.30
2023-04-08T02:05:10.847Z,1.20
2023-04-08T02:07:38.044Z,1.40
2023-04-08T02:10:05.742Z,1.23
2023-04-08T02:12:34.082Z,1.23
2023-04-08T02:15:01.514Z,1.35
2023-04-08T02:17:50.904Z,1.23
2023-04-08T02:20:35.480Z,1.42
2023-04-08T02:23:21.095Z,1.08
2023-04-08T02:25:49.050Z,1.65
2023-04-08T02:28:18.686Z,1.15
2023-04-08T02:30:53.086Z,1.13
2023-04-08T02:33:22.058Z,1.40
2023-04-08T02:35:54.864Z,1.48
2023-04-08T02:38:24.045Z,1.42
2023-04-08T02:40:51.562Z,1.30
2023-04-08T02:43:18.932Z,1.60
2023-04-08T02:45:46.509Z,1.42
2023-04-08T02:48:13.702Z,1.60
2023-04-08T02:50:41.186Z,1.48
2023-04-08T02:53:09.377Z,1.35
2023-04-08T02:55:36.640Z,1.37
2023-04-08T02:58:03.827Z,1.60
2023-04-08T03:00:31.349Z,1.40
2023-04-08T03:02:58.601Z,1.65
2023-04-08T03:05:26.875Z,1.85
2023-04-08T03:07:54.468Z,1.80
2023-04-08T03:10:21.646Z,1.88
2023-04-08T03:12:49.007Z,1.65
2023-04-08T03:15:16.241Z,1.83
2023-04-08T03:17:43.540Z,1.77
2023-04-08T03:20:11.301Z,1.95
2023-04-08T03:22:38.499Z,1.52
2023-04-08T03:25:06.312Z,1.90
2023-04-08T03:27:33.491Z,1.83
2023-04-08T03:30:00.897Z,2.25
2023-04-08T03:32:28.383Z,2.00
2023-04-08T03:34:55.893Z,2.40
2023-04-08T03:37:23.125Z,2.45
2023-04-08T03:39:50.357Z,2.53
2023-04-08T03:42:18.094Z,2.38
2023-04-08T03:44:45.281Z,2.08
2023-04-08T03:47:12.486Z,2.58
2023-04-08T03:49:39.659Z,2.45
2023-04-08T03:52:07.735Z,2.58
2023-04-08T03:54:35.008Z,2.35
2023-04-08T03:57:02.279Z,2.20
2023-04-08T03:59:29.706Z,2.55
2023-04-08T04:01:57.048Z,2.40
2023-04-08T04:04:25.445Z,2.42
2023-04-08T04:06:55.282Z,2.55
2023-04-08T04:09:22.503Z,2.97
2023-04-08T04:11:49.690Z,3.45
2023-04-08T04:14:16.878Z,2.45
2023-04-08T04:16:44.102Z,2.80
2023-04-08T04:19:11.474Z,2.90
2023-04-08T04:21:38.641Z,2.80
2023-04-08T04:24:06.048Z,2.95
2023-04-08T04:26:33.239Z,2.90
2023-04-08T04:29:00.524Z,3.17
2023-04-08T04:31:27.902Z,3.17
2023-04-08T04:33:55.612Z,3.08
2023-04-08T04:36:22.875Z,3.53
2023-04-08T04:38:51.128Z,2.95
2023-04-08T04:41:18.489Z,2.95
2023-04-08T04:43:45.868Z,2.85
2023-04-08T04:46:13.115Z,3.25
2023-04-08T04:48:40.674Z,3.42
2023-04-08T04:51:07.924Z,3.10
2023-04-08T04:53:35.412Z,3.10
2023-04-08T04:56:02.711Z,3.42
2023-04-08T04:58:30.684Z,3.75
2023-04-08T05:00:58.055Z,3.58
2023-04-08T05:03:26.111Z,3.40
2023-04-08T05:05:54.152Z,3.20
2023-04-08T05:08:22.023Z,3.38
2023-04-08T05:10:51.951Z,3.15
2023-04-08T05:13:19.286Z,3.33
2023-04-08T05:15:46.731Z,3.22
2023-04-08T05:18:14.071Z,3.70
2023-04-08T05:20:41.297Z,3.90
2023-04-08T05:23:08.704Z,3.67
2023-04-08T05:25:36.246Z,3.63
2023-04-08T05:28:03.878Z,3.40
2023-04-08T05:30:31.466Z,3.28
2023-04-08T05:33:00.636Z,3.78
2023-04-08T05:35:28.624Z,4.20
2023-04-08T05:37:56.013Z,3.45
2023-04-08T05:40:23.246Z,3.70
2023-04-08T05:42:50.554Z,3.85
2023-04-08T05:45:17.808Z,3.50
2023-04-08T05:47:45.046Z,3.67
2023-04-08T05:50:12.425Z,3.22
2023-04-08T05:52:44.718Z,4.07
2023-04-08T05:55:13.321Z,3.55
2023-04-08T05:57:41.194Z,3.80
2023-04-08T06:00:10.076Z,3.90
2023-04-08T06:02:37.539Z,3.88
2023-04-08T06:05:05.975Z,3.67
2023-04-08T06:07:33.939Z,4.13
2023-04-08T06:10:01.184Z,4.10
2023-04-08T06:12:28.428Z,4.10
2023-04-08T06:14:56.565Z,3.90
2023-04-08T06:17:23.957Z,4.17
2023-04-08T06:19:51.366Z,4.00
2023-04-08T06:22:18.550Z,3.80
2023-04-08T06:24:48.124Z,4.00
2023-04-08T06:27:15.939Z,4.03
2023-04-08T06:29:43.351Z,4.03
2023-04-08T06:32:10.920Z,4.53
2023-04-08T06:34:38.431Z,4.28
2023-04-08T06:37:06.413Z,4.43
2023-04-08T06:39:33.848Z,4.15
2023-04-08T06:42:01.626Z,4.03
2023-04-08T06:44:29.021Z,4.20
2023-04-08T06:46:56.516Z,4.75
2023-04-08T06:49:23.703Z,4.38
2023-04-08T06:51:50.959Z,4.57
2023-04-08T06:54:18.207Z,4.55
2023-04-08T06:56:45.499Z,4.55
2023-04-08T06:59:12.670Z,4.68
2023-04-08T07:01:40.108Z,4.82
2023-04-08T07:04:07.476Z,4.97
2023-04-08T07:06:34.769Z,4.47
2023-04-08T07:09:02.143Z,5.32
2023-04-08T07:11:29.454Z,5.28
2023-04-08T07:13:57.059Z,5.07
2023-04-08T07:16:24.465Z,4.80
2023-04-08T07:18:54.060Z,4.45
2023-04-08T07:21:21.391Z,4.85
2023-04-08T07:23:48.698Z,5.07
2023-04-08T07:26:15.895Z,4.88
2023-04-08T07:28:43.263Z,5.07
2023-04-08T07:31:18.663Z,4.68
2023-04-08T07:33:46.679Z,4.60
2023-04-08T07:36:15.382Z,5.03
2023-04-08T07:38:42.557Z,5.25
2023-04-08T07:41:09.775Z,5.05
2023-04-08T07:43:39.662Z,5.60
2023-04-08T07:46:07.768Z,5.35
2023-04-08T07:48:35.896Z,5.10
2023-04-08T07:51:11.354Z,5.18
2023-04-08T07:53:40.548Z,5.15
2023-04-08T07:56:15.442Z,5.15
2023-04-08T07:58:43.334Z,5.03
2023-04-08T08:01:24.346Z,5.15
2023-04-08T08:03:53.232Z,5.35
2023-04-08T08:06:22.117Z,5.95
2023-04-08T08:08:49.439Z,5.73
2023-04-08T08:11:16.635Z,5.30
2023-04-08T08:13:43.881Z,6.10
2023-04-08T08:16:12.038Z,5.45
2023-04-08T08:18:40.462Z,5.57
2023-04-08T08:21:08.865Z,5.43
2023-04-08T08:23:36.099Z,5.90
2023-04-08T08:26:07.726Z,6.25
2023-04-08T08:28:35.264Z,8.40
2023-04-08T08:31:03.504Z,11.57
2023-04-08T08:33:30.895Z,11.10
2023-04-08T08:35:58.567Z,12.50
2023-04-08T08:38:26.325Z,13.82
2023-04-08T08:40:57.169Z,12.90
2023-04-08T08:43:27.975Z,14.20
2023-04-08T08:45:55.794Z,13.98
2023-04-08T08:48:23.054Z,14.40
2023-04-08T08:50:50.424Z,13.43
2023-04-08T08:53:18.032Z,14.35
2023-04-08T08:56:13.709Z,14.73
2023-04-08T08:58:32.725Z,14.38
2023-04-08T09:00:59.981Z,15.25
2023-04-08T09:03:28.757Z,15.05
2023-04-08T09:08:31.880Z,14.10
2023-04-08T09:11:15.101Z,13.45
2023-04-08T09:13:42.660Z,12.65
2023-04-08T09:16:14.080Z,13.15
2023-04-08T09:18:44.507Z,12.43
2023-04-08T09:21:13.216Z,12.25
2023-04-08T09:23:45.404Z,12.32
2023-04-08T09:26:14.418Z,10.90
2023-04-08T09:28:42.471Z,11.63
2023-04-08T09:31:21.381Z,11.93
2023-04-08T09:33:50.297Z,11.02
2023-04-08T09:38:45.633Z,12.18
2023-04-08T09:41:17.766Z,10.90
2023-04-08T09:43:52.636Z,11.38
2023-04-08T09:46:27.176Z,10.63
2023-04-08T09:49:02.688Z,10.10
2023-04-08T09:51:34.746Z,9.98
2023-04-08T09:54:03.822Z,10.02
2023-04-08T09:59:03.382Z,10.68
2023-04-08T10:01:40.284Z,9.88
2023-04-08T10:04:12.612Z,9.93
2023-04-08T10:06:41.473Z,9.75
2023-04-08T10:09:10.091Z,9.45
2023-04-08T10:11:37.484Z,10.52
2023-04-08T10:14:04.846Z,10.30
2023-04-08T10:16:32.203Z,9.13
2023-04-08T10:18:59.826Z,10.13
2023-04-08T10:21:41.237Z,9.25
2023-04-08T10:24:11.982Z,9.55
2023-04-08T10:26:48.881Z,10.23
2023-04-08T10:29:18.920Z,9.68
2023-04-08T10:31:47.476Z,17.73
2023-04-08T10:34:26.354Z,12.30
2023-04-08T10:36:55.781Z,10.60
2023-04-08T10:39:24.697Z,10.00
2023-04-08T10:41:52.544Z,11.05
2023-04-08T10:44:21.580Z,11.50
2023-04-08T10:49:19.963Z,10.48
2023-04-08T10:51:47.892Z,9.98
2023-04-08T10:54:17.336Z,10.20
2023-04-08T10:56:49.510Z,9.85
2023-04-08T10:59:19.225Z,10.02
2023-04-08T11:01:47.357Z,16.55
2023-04-08T11:04:19.490Z,12.47
2023-04-08T11:06:47.556Z,12.45
2023-04-08T11:09:16.423Z,11.57
2023-04-08T11:11:44.748Z,10.55
2023-04-08T11:14:12.323Z,10.63
2023-04-08T11:16:39.958Z,10.77
2023-04-08T11:19:08.051Z,31.00
2023-04-08T11:21:38.775Z,29.58
2023-04-08T11:24:13.330Z,17.27
2023-04-08T11:26:41.659Z,20.95
2023-04-08T11:29:14.283Z,15.47
2023-04-08T11:31:42.671Z,13.50
2023-04-08T11:34:10.090Z,12.65
2023-04-08T11:36:40.253Z,11.35
2023-04-08T11:39:09.290Z,11.25
2023-04-08T11:44:07.034Z,9.60
2023-04-08T11:46:35.403Z,9.48
2023-04-08T11:49:07.980Z,9.35
2023-04-08T11:51:38.821Z,8.73
2023-04-08T11:54:09.163Z,9.18
2023-04-08T11:56:47.093Z,8.85
2023-04-08T11:59:14.590Z,7.78
2023-04-08T12:01:41.876Z,8.85
2023-04-08T12:04:10.949Z,8.43
2023-04-08T12:06:38.319Z,8.07
2023-04-08T12:09:05.559Z,8.27
2023-04-08T12:11:33.447Z,7.95
2023-04-08T12:14:00.708Z,8.07
2023-04-08T12:16:28.180Z,8.20
2023-04-08T12:18:55.576Z,7.80
2023-04-08T12:21:22.956Z,7.78
2023-04-08T12:23:50.461Z,8.00
2023-04-08T12:26:18.249Z,7.10
2023-04-08T12:28:45.940Z,7.72
2023-04-08T12:31:13.395Z,7.43
2023-04-08T12:33:41.059Z,7.28
2023-04-08T12:36:08.472Z,8.60
2023-04-08T12:38:35.885Z,8.32
2023-04-08T12:41:03.083Z,7.78
2023-04-08T12:43:32.669Z,8.32
2023-04-08T12:45:59.928Z,7.78
2023-04-08T12:48:28.153Z,8.32
2023-04-08T12:50:56.367Z,7.73
2023-04-08T12:53:24.596Z,8.07
2023-04-08T12:55:52.255Z,8.32
2023-04-08T12:58:21.410Z,7.30
2023-04-08T13:00:49.722Z,7.88
2023-04-08T13:03:17.932Z,7.57
2023-04-08T13:05:45.389Z,7.77
2023-04-08T13:08:12.608Z,7.75
2023-04-08T13:10:39.956Z,7.65
2023-04-08T13:13:07.146Z,7.55
2023-04-08T13:15:34.469Z,8.35
2023-04-08T13:18:02.007Z,7.43
2023-04-08T13:20:29.311Z,8.15
2023-04-08T13:22:59.250Z,7.68
2023-04-08T13:25:26.553Z,7.53
2023-04-08T13:27:53.927Z,6.93
2023-04-08T13:30:21.092Z,6.82
2023-04-08T13:32:48.470Z,7.13
2023-04-08T13:35:15.718Z,7.18
2023-04-08T13:37:42.956Z,6.78
2023-04-08T13:40:10.537Z,7.60
2023-04-08T13:42:37.816Z,7.00
2023-04-08T13:45:05.292Z,7.70
2023-04-08T13:47:32.581Z,6.57
2023-04-08T13:49:59.912Z,6.72
2023-04-08T13:52:27.494Z,6.38
2023-04-08T13:54:54.663Z,6.60
2023-04-08T13:57:21.878Z,6.57
2023-04-08T13:59:49.096Z,6.18
2023-04-08T14:02:16.330Z,6.53
2023-04-08T14:04:46.700Z,6.32
2023-04-08T14:07:14.466Z,5.80
2023-04-08T14:09:41.647Z,6.32
2023-04-08T14:12:08.850Z,5.82
2023-04-08T14:14:36.145Z,6.38
2023-04-08T14:17:03.440Z,6.20
2023-04-08T14:19:30.840Z,5.88
2023-04-08T14:21:58.033Z,6.78
2023-04-08T14:24:25.265Z,5.88
2023-04-08T14:26:52.458Z,6.60
2023-04-08T14:29:19.721Z,6.03
2023-04-08T14:31:46.911Z,6.32
2023-04-08T14:34:14.174Z,6.50
2023-04-08T14:36:41.367Z,6.38
2023-04-08T14:39:08.562Z,6.10
2023-04-08T14:41:35.773Z,5.85
2023-04-08T14:44:04.269Z,5.28
2023-04-08T14:46:31.730Z,6.07
2023-04-08T14:48:59.134Z,5.90
2023-04-08T14:51:26.415Z,5.82
2023-04-08T14:53:53.629Z,5.50
2023-04-08T14:56:21.143Z,5.38
2023-04-08T14:58:48.523Z,5.70
2023-04-08T15:01:18.414Z,5.30
2023-04-08T15:03:47.360Z,5.35
2023-04-08T15:06:17.568Z,5.00
2023-04-08T15:08:45.846Z,5.20
2023-04-08T15:11:13.215Z,4.88
2023-04-08T15:13:40.653Z,5.80
2023-04-08T15:16:07.878Z,5.47
2023-04-08T15:18:36.233Z,5.72
2023-04-08T15:21:03.567Z,5.10
2023-04-08T15:23:30.970Z,5.78
2023-04-08T15:25:58.228Z,5.05
2023-04-08T15:28:27.254Z,5.22
2023-04-08T15:33:21.710Z,5.18
2023-04-08T15:35:49.526Z,4.63
2023-04-08T15:38:17.465Z,4.88
2023-04-08T15:40:46.759Z,5.05
2023-04-08T15:43:15.237Z,5.20
2023-04-08T15:45:46.562Z,4.60
2023-04-08T15:48:13.828Z,4.78
2023-04-08T15:50:41.758Z,5.57
2023-04-08T15:53:09.249Z,4.82
2023-04-08T15:55:42.655Z,5.57
2023-04-08T15:58:12.245Z,4.93
2023-04-08T16:00:40.003Z,4.78
2023-04-08T16:03:08.997Z,5.00
